Disney Magic — C6PT7 — position and weather

sailwx.info

Track history (hours):
 
Tides and Currents Weather Stations Pressure Air Temp Water Temp Dewpoint Dewpoint Depression Visibility Wind Speed Wind Dir Waves Ship Positions

Disney Magic

Last reported at 2017-Nov-19 01:21 UTC. Time now 2017-Nov-19 03:12 UTC.
Position N 40°22' W 073°43'.

Type: Passenger vessel. MMSI: 308516000.

Date/timePositionNaut miles runAvg speedWind from/ knotsBaromVisibWave heightAir tempDewpointWater temp
2017-Nov-19 01:21N 40°22' W 073°43'510.0
2017-Nov-19 00:49N 40°26' W 073°47'2 7.6
2017-Nov-19 00:30N 40°27' W 073°50'510.0
2017-Nov-19 00:00N 40°30' W 073°56'713.2
2017-Nov-18 23:31N 40°34' W 074°02'713.3
2017-Nov-18 23:00N 40°41' W 074°02'510.0
2017-Nov-18 22:30N 40°46' W 074°01'1 1.5
2017-Nov-18 21:58N 40°46' W 073°60'0 0.0
2017-Nov-18 21:22N 40°46' W 073°60'0 0.0
2017-Nov-18 20:55N 40°46' W 073°60'0 0.0
2017-Nov-18 20:28N 40°46' W 073°60'0 0.0
2017-Nov-18 19:58N 40°46' W 073°60'0 0.0
2017-Nov-18 19:28N 40°46' W 073°60'0 0.0
2017-Nov-18 18:58N 40°46' W 073°60'0 0.0
2017-Nov-18 18:25N 40°46' W 073°60'0 0.0
2017-Nov-18 17:58N 40°46' W 073°60'0 0.0
2017-Nov-18 17:28N 40°46' W 073°60'0 0.0
2017-Nov-18 16:58N 40°46' W 073°60'0 0.0
2017-Nov-18 16:28N 40°46' W 073°60'0 0.0
2017-Nov-18 15:58N 40°46' W 073°60'0 0.0
2017-Nov-18 15:28N 40°46' W 073°60'0 0.0
2017-Nov-18 14:55N 40°46' W 073°60'0 0.0
2017-Nov-18 14:28N 40°46' W 073°60'0 0.0
2017-Nov-18 13:55N 40°46' W 073°60'0 0.0
2017-Nov-18 13:28N 40°46' W 073°60'0 0.0
2017-Nov-18 12:58N 40°46' W 073°60'0 0.0
2017-Nov-18 12:28N 40°46' W 073°60'0 0.0
2017-Nov-18 11:58N 40°46' W 073°60'0 0.0
2017-Nov-18 11:28N 40°46' W 073°60'0 0.5
2017-Nov-18 11:00N 40°46' W 074°00'3 5.9
2017-Nov-18 10:30N 40°43' W 074°01'510.8
2017-Nov-18 10:00N 40°38' W 074°03'713.7
2017-Nov-18 09:30N 40°31' W 074°00'612.2
2017-Nov-18 09:00N 40°29' W 073°53'4 8.7
2017-Nov-18 08:30N 40°27' W 073°48'4 8.5
2017-Nov-18 08:00N 40°23' W 073°47'5 9.1
2017-Nov-18 07:30N 40°18' W 073°46'2012.8
2017-Nov-18 05:55N 39°58' W 073°44'717.4
2017-Nov-18 05:30N 39°51' W 073°43'916.8
2017-Nov-18 05:00N 39°42' W 073°44'816.9
2017-Nov-18 04:30N 39°34' W 073°46'917.1
2017-Nov-18 03:59N 39°25' W 073°48'  
2017-Nov-15 05:21N 27°10' W 079°48'822.0
2017-Nov-15 05:00N 27°03' W 079°45'  
2017-Nov-12 02:03N 40°17' W 073°38'2 9.9
2017-Nov-12 01:51N 40°19' W 073°40'3 9.6
2017-Nov-12 01:30N 40°21' W 073°43'5 9.5
2017-Nov-12 01:00N 40°25' W 073°47'5 9.5
2017-Nov-12 00:30N 40°28' W 073°52'611.3
2017-Nov-12 00:00N 40°31' W 073°58'714.9
2017-Nov-11 23:30N 40°37' W 074°03'510.4
2017-Nov-11 23:00N 40°42' W 074°02'4 8.2
2017-Nov-11 22:30N 40°46' W 074°00'0 0.5
2017-Nov-11 21:54N 40°46' W 073°60'0 0.0
2017-Nov-11 21:30N 40°46' W 073°60'0 0.0
2017-Nov-11 21:00N 40°46' W 073°60'0 0.0
2017-Nov-11 20:30N 40°46' W 073°60'0 0.0
2017-Nov-11 20:00N 40°46' W 073°60'0 0.0
2017-Nov-11 19:30N 40°46' W 073°60'0 0.0
2017-Nov-11 19:00N 40°46' W 073°60'0 0.0
2017-Nov-11 18:27N 40°46' W 073°60'0 0.0
2017-Nov-11 18:00N 40°46' W 073°60'0 0.0
2017-Nov-11 17:30N 40°46' W 073°60'0 0.0
2017-Nov-11 17:00N 40°46' W 073°60'0 0.0
2017-Nov-11 16:24N 40°46' W 073°60'0 0.0
2017-Nov-11 16:00N 40°46' W 073°60'0 0.0
2017-Nov-11 15:30N 40°46' W 073°60'0 0.0
2017-Nov-11 14:57N 40°46' W 073°60'0 0.0
2017-Nov-11 14:30N 40°46' W 073°60'0 0.0
2017-Nov-11 13:57N 40°46' W 073°60'0 0.0
2017-Nov-11 13:30N 40°46' W 073°60'0 0.0
2017-Nov-11 12:54N 40°46' W 073°60'0 0.0
2017-Nov-11 12:30N 40°46' W 073°60'0 0.0
2017-Nov-11 12:00N 40°46' W 073°60'0 0.0
2017-Nov-11 11:30N 40°46' W 073°60'0 1.0
2017-Nov-11 11:00N 40°46' W 074°00'3 6.2
2017-Nov-11 10:30N 40°43' W 074°01'510.9
2017-Nov-11 10:00N 40°37' W 074°03'713.4
2017-Nov-11 09:30N 40°31' W 073°60'611.4
2017-Nov-11 09:00N 40°29' W 073°53'4 9.1
2017-Nov-11 08:30N 40°26' W 073°48'4 7.9
2017-Nov-11 08:00N 40°22' W 073°47'5 9.5
2017-Nov-11 07:26N 40°17' W 073°46'2614.1
2017-Nov-11 05:37N 39°51' W 073°43'216.8
2017-Nov-11 05:30N 39°49' W 073°43'2410.0
2017-Nov-11 03:05N 39°25' W 073°46'  
Track history (hours):
 
Tides and Currents Weather Stations Pressure Air Temp Water Temp Dewpoint Dewpoint Depression Visibility Wind Speed Wind Dir Waves Ship Positions

Disney Magic

Last reported at 2017-Nov-19 01:21 UTC. Time now 2017-Nov-19 03:12 UTC.
Position N 40°22' W 073°43'.

Type: Passenger vessel. MMSI: 308516000.

Date/timePositionNaut miles runAvg speedWind from/ knotsBaromVisibWave heightAir tempDewpointWater temp
2017-Nov-19 01:21N 40°22' W 073°43'510.0
2017-Nov-19 00:49N 40°26' W 073°47'2 7.6
2017-Nov-19 00:30N 40°27' W 073°50'510.0
2017-Nov-19 00:00N 40°30' W 073°56'713.2
2017-Nov-18 23:31N 40°34' W 074°02'713.3
2017-Nov-18 23:00N 40°41' W 074°02'510.0
2017-Nov-18 22:30N 40°46' W 074°01'1 1.5
2017-Nov-18 21:58N 40°46' W 073°60'0 0.0
2017-Nov-18 21:22N 40°46' W 073°60'0 0.0
2017-Nov-18 20:55N 40°46' W 073°60'0 0.0
2017-Nov-18 20:28N 40°46' W 073°60'0 0.0
2017-Nov-18 19:58N 40°46' W 073°60'0 0.0
2017-Nov-18 19:28N 40°46' W 073°60'0 0.0
2017-Nov-18 18:58N 40°46' W 073°60'0 0.0
2017-Nov-18 18:25N 40°46' W 073°60'0 0.0
2017-Nov-18 17:58N 40°46' W 073°60'0 0.0
2017-Nov-18 17:28N 40°46' W 073°60'0 0.0
2017-Nov-18 16:58N 40°46' W 073°60'0 0.0
2017-Nov-18 16:28N 40°46' W 073°60'0 0.0
2017-Nov-18 15:58N 40°46' W 073°60'0 0.0
2017-Nov-18 15:28N 40°46' W 073°60'0 0.0
2017-Nov-18 14:55N 40°46' W 073°60'0 0.0
2017-Nov-18 14:28N 40°46' W 073°60'0 0.0
2017-Nov-18 13:55N 40°46' W 073°60'0 0.0
2017-Nov-18 13:28N 40°46' W 073°60'0 0.0
2017-Nov-18 12:58N 40°46' W 073°60'0 0.0
2017-Nov-18 12:28N 40°46' W 073°60'0 0.0
2017-Nov-18 11:58N 40°46' W 073°60'0 0.0
2017-Nov-18 11:28N 40°46' W 073°60'0 0.5
2017-Nov-18 11:00N 40°46' W 074°00'3 5.9
2017-Nov-18 10:30N 40°43' W 074°01'510.8
2017-Nov-18 10:00N 40°38' W 074°03'713.7
2017-Nov-18 09:30N 40°31' W 074°00'612.2
2017-Nov-18 09:00N 40°29' W 073°53'4 8.7
2017-Nov-18 08:30N 40°27' W 073°48'4 8.5
2017-Nov-18 08:00N 40°23' W 073°47'5 9.1
2017-Nov-18 07:30N 40°18' W 073°46'2012.8
2017-Nov-18 05:55N 39°58' W 073°44'717.4
2017-Nov-18 05:30N 39°51' W 073°43'916.8
2017-Nov-18 05:00N 39°42' W 073°44'816.9
2017-Nov-18 04:30N 39°34' W 073°46'917.1
2017-Nov-18 03:59N 39°25' W 073°48'  
2017-Nov-15 05:21N 27°10' W 079°48'822.0
2017-Nov-15 05:00N 27°03' W 079°45'  
2017-Nov-12 02:03N 40°17' W 073°38'2 9.9
2017-Nov-12 01:51N 40°19' W 073°40'3 9.6
2017-Nov-12 01:30N 40°21' W 073°43'5 9.5
2017-Nov-12 01:00N 40°25' W 073°47'5 9.5
2017-Nov-12 00:30N 40°28' W 073°52'611.3
2017-Nov-12 00:00N 40°31' W 073°58'714.9
2017-Nov-11 23:30N 40°37' W 074°03'510.4
2017-Nov-11 23:00N 40°42' W 074°02'4 8.2
2017-Nov-11 22:30N 40°46' W 074°00'0 0.5
2017-Nov-11 21:54N 40°46' W 073°60'0 0.0
2017-Nov-11 21:30N 40°46' W 073°60'0 0.0
2017-Nov-11 21:00N 40°46' W 073°60'0 0.0
2017-Nov-11 20:30N 40°46' W 073°60'0 0.0
2017-Nov-11 20:00N 40°46' W 073°60'0 0.0
2017-Nov-11 19:30N 40°46' W 073°60'0 0.0
2017-Nov-11 19:00N 40°46' W 073°60'0 0.0
2017-Nov-11 18:27N 40°46' W 073°60'0 0.0
2017-Nov-11 18:00N 40°46' W 073°60'0 0.0
2017-Nov-11 17:30N 40°46' W 073°60'0 0.0
2017-Nov-11 17:00N 40°46' W 073°60'0 0.0
2017-Nov-11 16:24N 40°46' W 073°60'0 0.0
2017-Nov-11 16:00N 40°46' W 073°60'0 0.0
2017-Nov-11 15:30N 40°46' W 073°60'0 0.0
2017-Nov-11 14:57N 40°46' W 073°60'0 0.0
2017-Nov-11 14:30N 40°46' W 073°60'0 0.0
2017-Nov-11 13:57N 40°46' W 073°60'0 0.0
2017-Nov-11 13:30N 40°46' W 073°60'0 0.0
2017-Nov-11 12:54N 40°46' W 073°60'0 0.0
2017-Nov-11 12:30N 40°46' W 073°60'0 0.0
2017-Nov-11 12:00N 40°46' W 073°60'0 0.0
2017-Nov-11 11:30N 40°46' W 073°60'0 1.0
2017-Nov-11 11:00N 40°46' W 074°00'3 6.2
2017-Nov-11 10:30N 40°43' W 074°01'510.9
2017-Nov-11 10:00N 40°37' W 074°03'713.4
2017-Nov-11 09:30N 40°31' W 073°60'611.4
2017-Nov-11 09:00N 40°29' W 073°53'4 9.1
2017-Nov-11 08:30N 40°26' W 073°48'4 7.9
2017-Nov-11 08:00N 40°22' W 073°47'5 9.5
2017-Nov-11 07:26N 40°17' W 073°46'2614.1
2017-Nov-11 05:37N 39°51' W 073°43'216.8
2017-Nov-11 05:30N 39°49' W 073°43'2410.0
2017-Nov-11 03:05N 39°25' W 073°46'  

Dump ship's entire track history